createdAt,value
2023-03-15T00:01:19.748Z,101729.03
2023-03-15T00:03:48.317Z,101712.06
2023-03-15T00:06:15.846Z,101721.91
2023-03-15T00:08:47.657Z,101727.19
2023-03-15T00:11:16.315Z,101728.97
2023-03-15T00:13:43.969Z,101733.25
2023-03-15T00:16:12.575Z,101727.13
2023-03-15T00:18:43.833Z,101723.41
2023-03-15T00:21:15.358Z,101737.47
2023-03-15T00:23:42.860Z,101732.22
2023-03-15T00:26:10.089Z,101742.56
2023-03-15T00:28:37.494Z,101730.84
2023-03-15T00:31:14.385Z,101738.78
2023-03-15T00:33:41.949Z,101706.06
2023-03-15T00:36:10.794Z,101720.34
2023-03-15T00:38:39.539Z,101720.28
2023-03-15T00:41:13.037Z,101714.16
2023-03-15T00:43:41.651Z,101709.78
2023-03-15T00:46:08.823Z,101687.56
2023-03-15T00:48:36.370Z,101706.19
2023-03-15T00:51:07.877Z,101682.81
2023-03-15T00:53:36.773Z,101696.97
2023-03-15T00:56:10.302Z,101714.69
2023-03-15T00:58:38.055Z,101723.25
2023-03-15T01:01:11.153Z,101719.59
2023-03-15T01:04:40.834Z,101730.16
2023-03-15T01:11:19.773Z,101721.84
2023-03-15T01:13:46.746Z,101736.03
2023-03-15T01:16:14.814Z,101743.72
2023-03-15T01:27:07.853Z,101739.72
2023-03-15T01:29:34.889Z,101737.69
2023-03-15T01:32:02.151Z,101752.00
2023-03-15T01:35:06.991Z,101761.78
2023-03-15T01:37:59.316Z,101743.13
2023-03-15T01:40:26.884Z,101753.94
2023-03-15T01:43:06.118Z,101750.44
2023-03-15T01:46:24.468Z,101754.72
2023-03-15T01:48:59.672Z,101745.09
2023-03-15T01:52:08.899Z,101752.09
2023-03-15T01:54:57.121Z,101762.59
2023-03-15T01:57:31.397Z,101763.28
2023-03-15T02:00:08.464Z,101768.38
2023-03-15T02:02:51.055Z,101763.81
2023-03-15T02:05:30.304Z,101738.13
2023-03-15T02:07:57.657Z,101755.66
2023-03-15T02:10:35.590Z,101742.81
2023-03-15T02:13:04.640Z,101743.66
2023-03-15T02:15:32.447Z,101747.16
2023-03-15T02:18:02.090Z,101759.19
2023-03-15T02:20:45.570Z,101755.63
2023-03-15T02:29:53.441Z,101757.78
2023-03-15T02:36:42.319Z,101751.72
2023-03-15T02:39:21.102Z,101751.78
2023-03-15T02:41:57.775Z,101753.28
2023-03-15T02:44:33.739Z,101749.53
2023-03-15T02:47:12.203Z,101735.19
2023-03-15T02:49:45.334Z,101740.47
2023-03-15T02:52:14.232Z,101745.59
2023-03-15T02:54:43.883Z,101746.16
2023-03-15T02:57:15.490Z,101745.16
2023-03-15T02:59:43.985Z,101733.44
2023-03-15T03:02:12.898Z,101742.56
2023-03-15T03:04:42.040Z,101738.09
2023-03-15T03:07:09.778Z,101731.72
2023-03-15T03:09:49.395Z,101750.25
2023-03-15T03:12:18.354Z,101737.22
2023-03-15T03:14:45.680Z,101725.34
2023-03-15T03:17:16.889Z,101734.84
2023-03-15T03:19:44.490Z,101735.63
2023-03-15T03:22:13.666Z,101736.25
2023-03-15T03:24:46.043Z,101728.97
2023-03-15T03:27:15.687Z,101726.81
2023-03-15T03:29:45.416Z,101714.78
2023-03-15T03:32:13.184Z,101721.31
2023-03-15T03:34:40.267Z,101716.16
2023-03-15T03:37:08.378Z,101709.97
2023-03-15T03:39:49.385Z,101699.56
2023-03-15T03:42:16.779Z,101699.63
2023-03-15T03:44:44.063Z,101700.38
2023-03-15T03:47:11.757Z,101704.91
2023-03-15T03:49:39.069Z,101699.56
2023-03-15T03:52:06.647Z,101707.53
2023-03-15T03:54:34.434Z,101686.31
2023-03-15T03:57:29.597Z,101691.72
2023-03-15T03:59:59.018Z,101700.53
2023-03-15T04:02:26.582Z,101714.50
2023-03-15T04:05:03.280Z,101711.09
2023-03-15T04:07:30.747Z,101723.44
2023-03-15T04:09:57.854Z,101728.63
2023-03-15T04:12:24.997Z,101732.28
2023-03-15T04:14:55.143Z,101726.13
2023-03-15T04:17:24.266Z,101733.19
2023-03-15T04:19:51.414Z,101730.50
2023-03-15T04:22:25.319Z,101733.31
2023-03-15T04:25:04.514Z,101734.97
2023-03-15T04:27:58.981Z,101740.09
2023-03-15T04:30:59.134Z,101738.25
2023-03-15T04:33:37.782Z,101751.63
2023-03-15T04:36:31.607Z,101742.84
2023-03-15T04:39:17.032Z,101735.91
2023-03-15T04:41:47.196Z,101733.13
2023-03-15T04:44:49.789Z,101757.94
2023-03-15T04:47:41.428Z,101740.31
2023-03-15T04:50:43.757Z,101744.69
2023-03-15T04:53:50.067Z,101739.16
2023-03-15T04:56:43.133Z,101730.22
2023-03-15T04:59:24.648Z,101732.41
2023-03-15T05:02:03.952Z,101716.22
2023-03-15T05:04:31.338Z,101739.03
2023-03-15T05:07:13.705Z,101730.66
2023-03-15T05:09:55.826Z,101746.59
2023-03-15T05:12:46.061Z,101752.53
2023-03-15T05:15:42.174Z,101757.06
2023-03-15T05:18:35.267Z,101752.75
2023-03-15T05:21:13.417Z,101719.97
2023-03-15T05:23:53.557Z,101743.97
2023-03-15T05:26:47.008Z,101746.72
2023-03-15T05:29:52.515Z,101744.31
2023-03-15T05:32:27.107Z,101745.22
2023-03-15T05:35:29.954Z,101749.56
2023-03-15T05:38:32.341Z,101737.31
2023-03-15T05:41:09.589Z,101740.84
2023-03-15T05:43:56.089Z,101746.91
2023-03-15T05:46:49.318Z,101751.16
2023-03-15T05:49:32.170Z,101743.41
2023-03-15T05:52:33.353Z,101755.78
2023-03-15T05:55:12.855Z,101750.59
2023-03-15T05:58:01.852Z,101750.59
2023-03-15T06:00:53.291Z,101741.72
2023-03-15T06:03:37.513Z,101754.38
2023-03-15T06:06:13.690Z,101743.03
2023-03-15T06:08:41.960Z,101748.25
2023-03-15T06:11:09.304Z,101750.88
2023-03-15T06:13:37.300Z,101747.44
2023-03-15T06:16:11.215Z,101764.03
2023-03-15T06:18:43.186Z,101767.19
2023-03-15T06:21:11.609Z,101768.28
2023-03-15T06:23:39.310Z,101777.19
2023-03-15T06:26:06.733Z,101783.09
2023-03-15T06:28:35.448Z,101783.03
2023-03-15T06:31:10.609Z,101782.22
2023-03-15T06:33:47.159Z,101768.88
2023-03-15T06:36:15.583Z,101793.75
2023-03-15T06:38:43.824Z,101798.06
2023-03-15T06:41:16.890Z,101787.56
2023-03-15T06:43:44.894Z,101789.28
2023-03-15T06:46:13.406Z,101790.16
2023-03-15T06:48:41.359Z,101793.53
2023-03-15T06:51:10.625Z,101790.09
2023-03-15T06:53:37.883Z,101787.44
2023-03-15T06:56:05.974Z,101781.97
2023-03-15T06:58:33.350Z,101797.50
2023-03-15T07:01:00.498Z,101782.69
2023-03-15T07:03:27.720Z,101796.00
2023-03-15T07:05:55.179Z,101788.16
2023-03-15T07:08:24.774Z,101801.28
2023-03-15T07:10:52.686Z,101791.53
2023-03-15T07:13:20.672Z,101808.22
2023-03-15T07:15:52.850Z,101795.19
2023-03-15T07:18:20.425Z,101797.84
2023-03-15T07:20:47.560Z,101807.81
2023-03-15T07:23:14.721Z,101810.63
2023-03-15T07:25:54.271Z,101810.94
2023-03-15T07:28:22.867Z,101815.50
2023-03-15T07:31:02.133Z,101817.41
2023-03-15T07:33:32.030Z,101814.22
2023-03-15T07:36:00.243Z,101820.41
2023-03-15T07:38:31.664Z,101818.00
2023-03-15T07:41:01.665Z,101834.09
2023-03-15T07:43:30.021Z,101826.44
2023-03-15T07:46:13.996Z,101832.91
2023-03-15T07:48:41.502Z,101838.34
2023-03-15T07:51:08.791Z,101836.69
2023-03-15T07:53:35.972Z,101829.13
2023-03-15T07:56:03.180Z,101842.66
2023-03-15T07:58:30.281Z,101844.56
2023-03-15T08:00:58.101Z,101845.50
2023-03-15T08:03:27.235Z,101841.88
2023-03-15T08:05:55.719Z,101854.50
2023-03-15T08:08:22.926Z,101848.50
2023-03-15T08:10:50.105Z,101843.38
2023-03-15T08:13:17.406Z,101858.66
2023-03-15T08:15:48.047Z,101851.97
2023-03-15T08:18:15.451Z,101859.31
2023-03-15T08:20:42.558Z,101866.34
2023-03-15T08:23:09.958Z,101858.88
2023-03-15T08:25:41.221Z,101852.50
2023-03-15T08:28:08.708Z,101852.28
2023-03-15T08:30:35.881Z,101868.53
2023-03-15T08:33:04.014Z,101869.31
2023-03-15T08:35:33.250Z,101848.09
2023-03-15T08:38:02.935Z,101876.69
2023-03-15T08:40:30.873Z,101876.03
2023-03-15T08:42:58.250Z,101867.13
2023-03-15T08:45:26.647Z,101875.97
2023-03-15T08:48:00.000Z,101873.34
2023-03-15T08:50:27.800Z,101881.97
2023-03-15T08:52:55.619Z,101875.19
2023-03-15T08:55:24.665Z,101881.59
2023-03-15T08:57:51.802Z,101870.09
2023-03-15T09:00:23.211Z,101883.78
2023-03-15T09:02:54.646Z,101873.56
2023-03-15T09:05:23.899Z,101883.31
2023-03-15T09:07:53.342Z,101877.53
2023-03-15T09:10:21.066Z,101880.19
2023-03-15T09:12:51.230Z,101883.66
2023-03-15T09:15:19.455Z,101881.31
2023-03-15T09:17:46.701Z,101882.28
2023-03-15T09:20:19.412Z,101886.84
2023-03-15T09:22:53.236Z,101887.94
2023-03-15T09:25:20.798Z,101887.34
2023-03-15T09:27:48.050Z,101888.16
2023-03-15T09:30:15.930Z,101878.56
2023-03-15T09:32:44.510Z,101880.25
2023-03-15T09:35:16.129Z,101875.13
2023-03-15T09:37:43.744Z,101867.09
2023-03-15T09:40:16.604Z,101877.13
2023-03-15T09:42:54.442Z,101884.97
2023-03-15T09:45:31.838Z,101889.44
2023-03-15T09:48:17.608Z,101882.53
2023-03-15T09:50:56.692Z,101882.81
2023-03-15T09:53:51.480Z,101877.78
2023-03-15T09:56:29.397Z,101869.19
2023-03-15T09:59:00.456Z,101858.19
2023-03-15T10:01:39.780Z,101873.34
2023-03-15T10:04:30.632Z,101890.72
2023-03-15T10:07:01.148Z,101880.94
2023-03-15T10:09:36.522Z,101872.88
2023-03-15T10:12:12.792Z,101873.13
2023-03-15T10:15:01.583Z,101882.22
2023-03-15T10:17:37.854Z,101884.22
2023-03-15T10:20:16.293Z,101877.38
2023-03-15T10:23:05.674Z,101872.13
2023-03-15T10:25:35.064Z,101875.19
2023-03-15T10:28:05.779Z,101876.56
2023-03-15T10:30:35.222Z,101859.94
2023-03-15T10:33:06.133Z,101858.41
2023-03-15T10:35:33.427Z,101860.41
2023-03-15T10:38:00.692Z,101860.47
2023-03-15T10:40:45.945Z,101855.16
2023-03-15T10:43:20.101Z,101856.44
2023-03-15T10:45:58.214Z,101857.13
2023-03-15T10:48:25.318Z,101857.19
2023-03-15T10:50:52.508Z,101858.06
2023-03-15T10:53:25.800Z,101851.00
2023-03-15T10:56:01.014Z,101851.75
2023-03-15T10:58:39.015Z,101844.06
2023-03-15T11:01:11.321Z,101832.63
2023-03-15T11:03:38.856Z,101839.63
2023-03-15T11:06:21.338Z,101831.53
2023-03-15T11:08:48.728Z,101835.00
2023-03-15T11:11:16.011Z,101834.09
2023-03-15T11:13:54.954Z,101828.44
2023-03-15T11:16:22.628Z,101831.19
2023-03-15T11:18:55.784Z,101839.06
2023-03-15T11:21:26.759Z,101834.47
2023-03-15T11:23:55.984Z,101825.94
2023-03-15T11:26:33.349Z,101796.47
2023-03-15T11:29:08.190Z,101808.88
2023-03-15T11:31:36.645Z,101824.06
2023-03-15T11:34:09.432Z,101817.47
2023-03-15T11:36:41.497Z,101814.44
2023-03-15T11:39:15.858Z,101802.06
2023-03-15T11:41:53.121Z,101819.63
2023-03-15T11:44:29.458Z,101813.75
2023-03-15T11:47:04.172Z,101804.84
2023-03-15T11:49:51.110Z,101816.66
2023-03-15T11:52:21.275Z,101789.38
2023-03-15T11:55:03.863Z,101807.59
2023-03-15T11:57:48.751Z,101808.16
2023-03-15T12:00:18.878Z,101807.53
2023-03-15T12:03:02.298Z,101789.94
2023-03-15T12:05:48.242Z,101796.53
2023-03-15T12:08:40.257Z,101788.97
2023-03-15T12:11:15.082Z,101762.78
2023-03-15T12:13:58.998Z,101764.94
2023-03-15T12:16:30.993Z,101756.50
2023-03-15T12:19:22.288Z,101759.44
2023-03-15T12:21:55.317Z,101757.84
2023-03-15T12:24:27.701Z,101764.13
2023-03-15T12:27:02.640Z,101753.56
2023-03-15T12:29:33.618Z,101746.56
2023-03-15T12:32:03.770Z,101751.25
2023-03-15T12:34:38.688Z,101746.91
2023-03-15T12:37:32.739Z,101735.53
2023-03-15T12:40:02.119Z,101737.50
2023-03-15T12:42:33.589Z,101723.00
2023-03-15T12:45:17.176Z,101715.13
2023-03-15T12:47:51.117Z,101717.72
2023-03-15T12:50:47.299Z,101712.47
2023-03-15T12:53:37.326Z,101709.91
2023-03-15T12:56:19.703Z,101705.44
2023-03-15T12:58:55.753Z,101686.75
2023-03-15T13:01:26.847Z,101699.84
2023-03-15T13:03:59.129Z,101684.91
2023-03-15T13:06:33.023Z,101685.72
2023-03-15T13:09:23.241Z,101682.91
2023-03-15T13:12:11.128Z,101667.81
2023-03-15T13:14:49.512Z,101649.47
2023-03-15T13:17:41.913Z,101649.03
2023-03-15T13:20:26.856Z,101640.31
2023-03-15T13:23:11.870Z,101641.47
2023-03-15T13:26:03.078Z,101646.72
2023-03-15T13:28:46.812Z,101625.66
2023-03-15T13:31:22.629Z,101632.84
2023-03-15T13:33:57.606Z,101611.63
2023-03-15T13:36:40.118Z,101605.22
2023-03-15T13:39:19.170Z,101608.06
2023-03-15T13:41:46.861Z,101587.91
2023-03-15T13:44:24.098Z,101597.75
2023-03-15T13:46:53.915Z,101609.41
2023-03-15T13:49:22.189Z,101597.13
2023-03-15T13:51:52.394Z,101590.91
2023-03-15T13:54:30.578Z,101587.31
2023-03-15T13:57:07.609Z,101591.88
2023-03-15T13:59:55.576Z,101576.94
2023-03-15T14:02:46.534Z,101563.63
2023-03-15T14:05:17.985Z,101562.63
2023-03-15T14:07:59.552Z,101568.75
2023-03-15T14:10:44.646Z,101568.59
2023-03-15T14:16:57.354Z,101568.72
2023-03-15T14:19:33.835Z,101575.91
2023-03-15T14:22:16.337Z,101535.44
2023-03-15T14:24:46.888Z,101554.88
2023-03-15T14:27:21.268Z,101538.19
2023-03-15T14:29:52.537Z,101543.44
2023-03-15T14:32:39.173Z,101536.38
2023-03-15T14:35:24.729Z,101539.94
2023-03-15T14:38:10.116Z,101548.63
2023-03-15T14:40:39.436Z,101544.16
2023-03-15T14:43:08.978Z,101533.50
2023-03-15T14:45:40.679Z,101528.31
2023-03-15T14:48:30.338Z,101558.31
2023-03-15T14:50:58.061Z,101508.97
2023-03-15T14:53:27.148Z,101537.25
2023-03-15T14:55:55.069Z,101547.75
2023-03-15T14:58:23.329Z,101549.50
2023-03-15T15:00:56.455Z,101537.13
2023-03-15T15:03:32.712Z,101544.22
2023-03-15T15:06:03.131Z,101539.72
2023-03-15T15:08:32.146Z,101520.44
2023-03-15T15:11:00.369Z,101513.41
2023-03-15T15:13:33.848Z,101508.94
2023-03-15T15:16:03.624Z,101511.72
2023-03-15T15:18:33.651Z,101514.38
2023-03-15T15:21:03.221Z,101520.53
2023-03-15T15:23:47.436Z,101499.44
2023-03-15T15:26:26.377Z,101502.19
2023-03-15T15:28:54.410Z,101491.63
2023-03-15T15:31:24.296Z,101503.91
2023-03-15T15:33:53.222Z,101499.44
2023-03-15T15:36:33.375Z,101490.53
2023-03-15T15:39:06.439Z,101490.41
2023-03-15T15:41:36.759Z,101494.81
2023-03-15T15:44:04.326Z,101476.34
2023-03-15T15:46:31.526Z,101489.56
2023-03-15T15:48:59.109Z,101475.38
2023-03-15T15:51:29.452Z,101496.53
2023-03-15T15:54:01.976Z,101473.56
2023-03-15T15:56:44.354Z,101496.41
2023-03-15T15:59:15.283Z,101478.72
2023-03-15T16:01:58.841Z,101483.44
2023-03-15T16:04:28.411Z,101470.09
2023-03-15T16:07:02.687Z,101482.34
2023-03-15T16:09:32.534Z,101483.16
2023-03-15T16:11:59.798Z,101484.00
2023-03-15T16:14:26.973Z,101464.47
2023-03-15T16:16:54.220Z,101483.84
2023-03-15T16:19:25.593Z,101475.88
2023-03-15T16:21:54.713Z,101474.06
2023-03-15T16:24:27.265Z,101481.88
2023-03-15T16:27:01.389Z,101480.22
2023-03-15T16:29:36.979Z,101480.19
2023-03-15T16:32:19.041Z,101474.06
2023-03-15T16:34:49.694Z,101470.56
2023-03-15T16:37:20.728Z,101468.84
2023-03-15T16:39:50.920Z,101452.91
2023-03-15T16:42:20.501Z,101440.69
2023-03-15T16:44:57.599Z,101458.25
2023-03-15T16:47:44.133Z,101465.31
2023-03-15T16:50:37.968Z,101451.25
2023-03-15T16:53:08.642Z,101454.75
2023-03-15T16:55:40.951Z,101462.59
2023-03-15T16:58:17.846Z,101464.28
2023-03-15T17:00:55.415Z,101452.78
2023-03-15T17:03:28.497Z,101457.97
2023-03-15T17:05:58.262Z,101441.09
2023-03-15T17:08:25.688Z,101454.22
2023-03-15T17:10:53.130Z,101445.34
2023-03-15T17:13:42.797Z,101436.50
2023-03-15T17:16:16.784Z,101453.22
2023-03-15T17:18:44.916Z,101451.38
2023-03-15T17:21:18.414Z,101446.13
2023-03-15T17:23:47.251Z,101450.44
2023-03-15T17:26:17.748Z,101455.66
2023-03-15T17:28:45.732Z,101440.59
2023-03-15T17:31:24.943Z,101430.00
2023-03-15T17:33:52.621Z,101444.91
2023-03-15T17:36:26.085Z,101443.94
2023-03-15T17:38:54.444Z,101455.25
2023-03-15T17:41:44.536Z,101455.13
2023-03-15T17:44:11.874Z,101454.06
2023-03-15T17:46:39.071Z,101461.06
2023-03-15T17:49:07.381Z,101438.00
2023-03-15T17:51:36.494Z,101459.06
2023-03-15T17:54:13.486Z,101460.69
2023-03-15T17:56:41.051Z,101441.16
2023-03-15T17:59:13.485Z,101454.19
2023-03-15T18:01:46.618Z,101444.44
2023-03-15T18:04:14.048Z,101452.06
2023-03-15T18:06:41.902Z,101451.03
2023-03-15T18:09:13.344Z,101443.84
2023-03-15T18:11:42.815Z,101457.56
2023-03-15T18:14:15.308Z,101436.31
2023-03-15T18:16:43.873Z,101452.06
2023-03-15T18:19:11.630Z,101450.16
2023-03-15T18:21:39.002Z,101442.03
2023-03-15T18:24:07.813Z,101446.13
2023-03-15T18:26:35.966Z,101428.31
2023-03-15T18:29:03.426Z,101439.00
2023-03-15T18:31:30.760Z,101424.63
2023-03-15T18:33:58.494Z,101440.38
2023-03-15T18:36:25.776Z,101421.56
2023-03-15T18:38:53.207Z,101446.19
2023-03-15T18:41:24.858Z,101440.78
2023-03-15T18:43:52.990Z,101413.97
2023-03-15T18:46:26.783Z,101435.88
2023-03-15T18:48:54.748Z,101439.38
2023-03-15T18:51:25.443Z,101432.19
2023-03-15T18:53:53.314Z,101407.09
2023-03-15T18:56:24.121Z,101443.09
2023-03-15T18:58:52.718Z,101425.38
2023-03-15T19:01:24.839Z,101442.94
2023-03-15T19:03:57.912Z,101438.53
2023-03-15T19:06:34.379Z,101441.72
2023-03-15T19:09:02.479Z,101425.66
2023-03-15T19:11:31.837Z,101448.56
2023-03-15T19:14:02.363Z,101438.78
2023-03-15T19:16:31.683Z,101446.38
2023-03-15T19:18:59.069Z,101427.63
2023-03-15T19:21:26.795Z,101414.38
2023-03-15T19:23:55.623Z,101434.72
2023-03-15T19:26:25.187Z,101430.03
2023-03-15T19:28:52.284Z,101422.81
2023-03-15T19:31:19.636Z,101436.66
2023-03-15T19:33:47.022Z,101434.00
2023-03-15T19:36:14.244Z,101417.91
2023-03-15T19:38:41.633Z,101434.69
2023-03-15T19:41:11.966Z,101424.88
2023-03-15T19:43:43.637Z,101416.81
2023-03-15T19:46:14.005Z,101406.09
2023-03-15T19:48:41.732Z,101416.47
2023-03-15T19:51:09.070Z,101412.88
2023-03-15T19:53:36.307Z,101407.50
2023-03-15T19:56:08.403Z,101416.06
2023-03-15T19:58:36.008Z,101423.91
2023-03-15T20:01:03.612Z,101417.59
2023-03-15T20:03:40.806Z,101407.78
2023-03-15T20:06:12.597Z,101412.16
2023-03-15T20:08:41.884Z,101407.50
2023-03-15T20:11:09.895Z,101413.38
2023-03-15T20:13:38.716Z,101409.09
2023-03-15T20:16:07.136Z,101401.84
2023-03-15T20:18:35.194Z,101407.97
2023-03-15T20:21:02.507Z,101404.34
2023-03-15T20:23:47.427Z,101398.88
2023-03-15T20:26:35.458Z,101386.53
2023-03-15T20:29:04.532Z,101400.47
2023-03-15T20:31:31.743Z,101401.25
2023-03-15T20:33:59.388Z,101399.38
2023-03-15T20:36:27.440Z,101391.41
2023-03-15T20:38:54.656Z,101399.19
2023-03-15T20:41:21.790Z,101399.13
2023-03-15T20:43:49.158Z,101397.31
2023-03-15T20:46:19.027Z,101367.19
2023-03-15T20:48:46.411Z,101383.84
2023-03-15T20:51:13.687Z,101390.03
2023-03-15T20:53:44.252Z,101396.97
2023-03-15T20:56:11.832Z,101398.53
2023-03-15T20:58:39.540Z,101388.81
2023-03-15T21:01:09.226Z,101396.72
2023-03-15T21:03:37.560Z,101391.16
2023-03-15T21:06:10.681Z,101400.91
2023-03-15T21:08:42.535Z,101401.56
2023-03-15T21:11:13.345Z,101400.59
2023-03-15T21:13:40.962Z,101400.50
2023-03-15T21:16:08.179Z,101388.94
2023-03-15T21:18:38.732Z,101392.19
2023-03-15T21:21:08.026Z,101399.97
2023-03-15T21:23:37.540Z,101407.06
2023-03-15T21:26:11.075Z,101410.56
2023-03-15T21:28:52.225Z,101387.69
2023-03-15T21:31:20.049Z,101406.22
2023-03-15T21:33:50.986Z,101403.41
2023-03-15T21:36:18.508Z,101405.06
2023-03-15T21:38:45.660Z,101399.00
2023-03-15T21:41:16.563Z,101393.59
2023-03-15T21:43:43.799Z,101394.28
2023-03-15T21:46:15.671Z,101392.53
2023-03-15T21:48:42.963Z,101396.78
2023-03-15T21:51:11.177Z,101382.59
2023-03-15T21:53:38.868Z,101384.41
2023-03-15T21:56:06.417Z,101378.25
2023-03-15T21:58:33.751Z,101372.09
2023-03-15T22:01:04.823Z,101365.81
2023-03-15T22:03:34.004Z,101367.47
2023-03-15T22:06:01.866Z,101367.38
2023-03-15T22:08:29.283Z,101358.34
2023-03-15T22:10:58.914Z,101359.34
2023-03-15T22:13:27.665Z,101356.78
2023-03-15T22:15:55.006Z,101352.31
2023-03-15T22:19:00.507Z,101353.13
2023-03-15T22:21:35.838Z,101346.97
2023-03-15T22:24:12.720Z,101339.88
2023-03-15T22:26:45.814Z,101341.47
2023-03-15T22:29:13.203Z,101336.00
2023-03-15T22:31:40.609Z,101328.06
2023-03-15T22:34:07.900Z,101318.28
2023-03-15T22:36:35.116Z,101327.03
2023-03-15T22:39:02.766Z,101312.13
2023-03-15T22:41:29.979Z,101321.88
2023-03-15T22:43:57.948Z,101321.66
2023-03-15T22:46:25.655Z,101317.22
2023-03-15T22:48:53.280Z,101311.03
2023-03-15T22:51:20.886Z,101312.69
2023-03-15T22:53:48.156Z,101303.78
2023-03-15T22:56:15.577Z,101311.53
2023-03-15T22:58:43.076Z,101294.84
2023-03-15T23:01:11.285Z,101298.34
2023-03-15T23:03:38.500Z,101295.41
2023-03-15T23:06:05.900Z,101299.78
2023-03-15T23:08:33.200Z,101297.00
2023-03-15T23:11:00.450Z,101301.25
2023-03-15T23:13:27.605Z,101284.72
2023-03-15T23:15:54.782Z,101284.88
2023-03-15T23:18:22.394Z,101289.97
2023-03-15T23:20:49.840Z,101290.84
2023-03-15T23:23:17.035Z,101282.94
2023-03-15T23:25:46.151Z,101256.44
2023-03-15T23:28:14.078Z,101278.13
2023-03-15T23:30:41.365Z,101259.56
2023-03-15T23:33:13.037Z,101273.97
2023-03-15T23:35:47.244Z,101258.63
2023-03-15T23:38:15.688Z,101284.84
2023-03-15T23:40:44.515Z,101275.94
2023-03-15T23:43:12.542Z,101270.69
2023-03-15T23:45:39.810Z,101267.38
2023-03-15T23:48:07.271Z,101256.22
2023-03-15T23:50:34.343Z,101258.16
2023-03-15T23:53:01.503Z,101260.81
2023-03-15T23:55:28.718Z,101268.38
2023-03-15T23:57:55.856Z,101264.13
